sensor_id;sensor_type;location;lat;lon;timestamp;P1;durP1;ratioP1;P2;durP2;ratioP2
40945;SDS011;55635;50.264;11.918;2022-08-01T00:01:25;5.43;;;4.95;;
40945;SDS011;55635;50.264;11.918;2022-08-01T00:04:06;4.30;;;4.00;;
40945;SDS011;55635;50.264;11.918;2022-08-01T00:06:47;4.78;;;4.43;;
40945;SDS011;55635;50.264;11.918;2022-08-01T00:09:28;4.47;;;4.10;;
40945;SDS011;55635;50.264;11.918;2022-08-01T00:12:09;4.88;;;4.35;;
40945;SDS011;55635;50.264;11.918;2022-08-01T00:14:50;4.80;;;4.45;;
40945;SDS011;55635;50.264;11.918;2022-08-01T00:17:31;5.10;;;4.68;;
40945;SDS011;55635;50.264;11.918;2022-08-01T00:20:13;5.63;;;4.82;;
40945;SDS011;55635;50.264;11.918;2022-08-01T00:22:54;5.20;;;4.78;;
40945;SDS011;55635;50.264;11.918;2022-08-01T00:25:35;5.13;;;4.72;;
40945;SDS011;55635;50.264;11.918;2022-08-01T00:28:16;5.30;;;4.90;;
40945;SDS011;55635;50.264;11.918;2022-08-01T00:30:57;6.53;;;4.80;;
40945;SDS011;55635;50.264;11.918;2022-08-01T00:33:38;6.30;;;4.70;;
40945;SDS011;55635;50.264;11.918;2022-08-01T00:36:19;5.35;;;4.95;;
40945;SDS011;55635;50.264;11.918;2022-08-01T00:39:00;5.05;;;4.60;;
40945;SDS011;55635;50.264;11.918;2022-08-01T00:41:41;4.97;;;4.55;;
40945;SDS011;55635;50.264;11.918;2022-08-01T00:44:22;6.22;;;5.13;;
40945;SDS011;55635;50.264;11.918;2022-08-01T00:47:04;5.03;;;4.63;;
40945;SDS011;55635;50.264;11.918;2022-08-01T00:49:46;6.53;;;4.50;;
40945;SDS011;55635;50.264;11.918;2022-08-01T00:52:27;6.35;;;5.70;;
40945;SDS011;55635;50.264;11.918;2022-08-01T00:55:08;5.53;;;5.07;;
40945;SDS011;55635;50.264;11.918;2022-08-01T00:57:52;6.28;;;5.28;;
40945;SDS011;55635;50.264;11.918;2022-08-01T01:00:34;6.43;;;5.82;;
40945;SDS011;55635;50.264;11.918;2022-08-01T01:03:16;7.28;;;5.72;;
40945;SDS011;55635;50.264;11.918;2022-08-01T01:06:10;6.72;;;6.10;;
40945;SDS011;55635;50.264;11.918;2022-08-01T01:15:26;6.57;;;5.95;;
40945;SDS011;55635;50.264;11.918;2022-08-01T01:18:55;6.50;;;6.00;;
40945;SDS011;55635;50.264;11.918;2022-08-01T01:21:53;6.35;;;5.70;;
40945;SDS011;55635;50.264;11.918;2022-08-01T01:31:15;7.13;;;6.43;;
40945;SDS011;55635;50.264;11.918;2022-08-01T01:34:00;6.05;;;5.55;;
40945;SDS011;55635;50.264;11.918;2022-08-01T01:36:44;6.90;;;6.40;;
40945;SDS011;55635;50.264;11.918;2022-08-01T01:39:28;8.70;;;6.30;;
40945;SDS011;55635;50.264;11.918;2022-08-01T01:42:11;5.78;;;5.28;;
40945;SDS011;55635;50.264;11.918;2022-08-01T01:44:52;6.55;;;5.88;;
40945;SDS011;55635;50.264;11.918;2022-08-01T01:47:36;6.30;;;5.80;;
40945;SDS011;55635;50.264;11.918;2022-08-01T01:50:21;6.18;;;5.60;;
40945;SDS011;55635;50.264;11.918;2022-08-01T01:53:05;11.18;;;6.82;;
40945;SDS011;55635;50.264;11.918;2022-08-01T01:55:51;9.43;;;6.35;;
40945;SDS011;55635;50.264;11.918;2022-08-01T01:58:34;6.88;;;5.63;;
40945;SDS011;55635;50.264;11.918;2022-08-01T02:01:19;7.18;;;6.30;;
40945;SDS011;55635;50.264;11.918;2022-08-01T02:04:05;6.60;;;6.00;;
40945;SDS011;55635;50.264;11.918;2022-08-01T02:06:47;8.30;;;6.05;;
40945;SDS011;55635;50.264;11.918;2022-08-01T02:09:32;7.30;;;6.60;;
40945;SDS011;55635;50.264;11.918;2022-08-01T02:12:16;6.53;;;5.97;;
40945;SDS011;55635;50.264;11.918;2022-08-01T02:14:59;6.47;;;5.90;;
40945;SDS011;55635;50.264;11.918;2022-08-01T02:17:43;6.82;;;6.22;;
40945;SDS011;55635;50.264;11.918;2022-08-01T02:20:29;7.40;;;6.68;;
40945;SDS011;55635;50.264;11.918;2022-08-01T02:23:11;6.70;;;6.20;;
40945;SDS011;55635;50.264;11.918;2022-08-01T02:25:53;6.47;;;5.88;;
40945;SDS011;55635;50.264;11.918;2022-08-01T02:28:41;7.40;;;6.75;;
40945;SDS011;55635;50.264;11.918;2022-08-01T02:31:31;6.03;;;5.57;;
40945;SDS011;55635;50.264;11.918;2022-08-01T02:34:16;7.13;;;6.25;;
40945;SDS011;55635;50.264;11.918;2022-08-01T02:36:59;6.80;;;6.20;;
40945;SDS011;55635;50.264;11.918;2022-08-01T02:39:41;6.90;;;6.20;;
40945;SDS011;55635;50.264;11.918;2022-08-01T02:42:26;11.80;;;6.25;;
40945;SDS011;55635;50.264;11.918;2022-08-01T02:45:10;6.90;;;6.20;;
40945;SDS011;55635;50.264;11.918;2022-08-01T02:47:55;6.50;;;5.95;;
40945;SDS011;55635;50.264;11.918;2022-08-01T02:50:45;6.07;;;5.45;;
40945;SDS011;55635;50.264;11.918;2022-08-01T02:53:33;6.63;;;6.15;;
40945;SDS011;55635;50.264;11.918;2022-08-01T02:56:17;7.45;;;6.85;;
40945;SDS011;55635;50.264;11.918;2022-08-01T02:59:04;8.10;;;7.28;;
40945;SDS011;55635;50.264;11.918;2022-08-01T03:01:49;6.90;;;6.28;;
40945;SDS011;55635;50.264;11.918;2022-08-01T03:04:33;7.28;;;6.57;;
40945;SDS011;55635;50.264;11.918;2022-08-01T03:07:16;7.28;;;6.68;;
40945;SDS011;55635;50.264;11.918;2022-08-01T03:09:58;7.18;;;6.57;;
40945;SDS011;55635;50.264;11.918;2022-08-01T03:12:40;7.32;;;6.55;;
40945;SDS011;55635;50.264;11.918;2022-08-01T03:15:23;8.00;;;7.22;;
40945;SDS011;55635;50.264;11.918;2022-08-01T03:18:07;7.38;;;6.68;;
40945;SDS011;55635;50.264;11.918;2022-08-01T03:20:50;9.23;;;7.15;;
40945;SDS011;55635;50.264;11.918;2022-08-01T03:23:34;7.75;;;6.85;;
40945;SDS011;55635;50.264;11.918;2022-08-01T03:26:18;7.28;;;6.68;;
40945;SDS011;55635;50.264;11.918;2022-08-01T03:29:02;7.25;;;6.68;;
40945;SDS011;55635;50.264;11.918;2022-08-01T03:31:46;7.82;;;7.15;;
40945;SDS011;55635;50.264;11.918;2022-08-01T03:34:29;8.30;;;7.45;;
40945;SDS011;55635;50.264;11.918;2022-08-01T03:37:11;7.25;;;6.65;;
40945;SDS011;55635;50.264;11.918;2022-08-01T03:40:09;8.23;;;7.53;;
40945;SDS011;55635;50.264;11.918;2022-08-01T03:43:16;6.10;;;5.50;;
40945;SDS011;55635;50.264;11.918;2022-08-01T03:46:13;6.68;;;6.07;;
40945;SDS011;55635;50.264;11.918;2022-08-01T03:49:02;10.85;;;6.95;;
40945;SDS011;55635;50.264;11.918;2022-08-01T03:51:51;7.50;;;6.85;;
40945;SDS011;55635;50.264;11.918;2022-08-01T03:54:35;9.18;;;7.60;;
40945;SDS011;55635;50.264;11.918;2022-08-01T03:57:20;8.48;;;7.78;;
40945;SDS011;55635;50.264;11.918;2022-08-01T04:00:04;8.43;;;7.28;;
40945;SDS011;55635;50.264;11.918;2022-08-01T04:02:52;8.37;;;7.47;;
40945;SDS011;55635;50.264;11.918;2022-08-01T04:05:34;7.30;;;6.70;;
40945;SDS011;55635;50.264;11.918;2022-08-01T04:08:15;8.30;;;7.50;;
40945;SDS011;55635;50.264;11.918;2022-08-01T04:10:56;8.48;;;7.63;;
40945;SDS011;55635;50.264;11.918;2022-08-01T04:13:38;8.65;;;7.07;;
40945;SDS011;55635;50.264;11.918;2022-08-01T04:16:20;11.18;;;7.57;;
40945;SDS011;55635;50.264;11.918;2022-08-01T04:19:02;8.60;;;7.80;;
40945;SDS011;55635;50.264;11.918;2022-08-01T04:21:43;8.55;;;7.63;;
40945;SDS011;55635;50.264;11.918;2022-08-01T04:24:24;7.78;;;7.00;;
40945;SDS011;55635;50.264;11.918;2022-08-01T04:27:11;8.48;;;7.78;;
40945;SDS011;55635;50.264;11.918;2022-08-01T04:29:58;8.88;;;7.93;;
40945;SDS011;55635;50.264;11.918;2022-08-01T04:32:41;7.43;;;6.68;;
40945;SDS011;55635;50.264;11.918;2022-08-01T04:35:26;8.35;;;6.53;;
40945;SDS011;55635;50.264;11.918;2022-08-01T04:38:10;7.70;;;7.05;;
40945;SDS011;55635;50.264;11.918;2022-08-01T04:40:54;8.98;;;8.07;;
40945;SDS011;55635;50.264;11.918;2022-08-01T04:43:36;9.20;;;8.32;;
40945;SDS011;55635;50.264;11.918;2022-08-01T04:46:18;9.95;;;7.82;;
40945;SDS011;55635;50.264;11.918;2022-08-01T04:49:00;9.77;;;8.77;;
40945;SDS011;55635;50.264;11.918;2022-08-01T04:51:52;8.75;;;7.82;;
40945;SDS011;55635;50.264;11.918;2022-08-01T04:54:37;9.73;;;8.93;;
40945;SDS011;55635;50.264;11.918;2022-08-01T04:57:18;10.20;;;8.98;;
40945;SDS011;55635;50.264;11.918;2022-08-01T04:59:59;12.80;;;8.85;;
40945;SDS011;55635;50.264;11.918;2022-08-01T05:02:42;11.07;;;8.05;;
40945;SDS011;55635;50.264;11.918;2022-08-01T05:05:23;8.48;;;7.68;;
40945;SDS011;55635;50.264;11.918;2022-08-01T05:08:06;9.60;;;8.70;;
40945;SDS011;55635;50.264;11.918;2022-08-01T05:10:47;10.13;;;9.10;;
40945;SDS011;55635;50.264;11.918;2022-08-01T05:13:28;10.18;;;8.77;;
40945;SDS011;55635;50.264;11.918;2022-08-01T05:16:09;10.63;;;8.52;;
40945;SDS011;55635;50.264;11.918;2022-08-01T05:18:50;8.75;;;7.85;;
40945;SDS011;55635;50.264;11.918;2022-08-01T05:21:32;9.57;;;7.95;;
40945;SDS011;55635;50.264;11.918;2022-08-01T05:24:13;9.20;;;8.40;;
40945;SDS011;55635;50.264;11.918;2022-08-01T05:26:54;8.73;;;7.82;;
40945;SDS011;55635;50.264;11.918;2022-08-01T05:29:42;9.20;;;8.40;;
40945;SDS011;55635;50.264;11.918;2022-08-01T05:32:23;8.13;;;7.30;;
40945;SDS011;55635;50.264;11.918;2022-08-01T05:35:04;7.75;;;6.70;;
40945;SDS011;55635;50.264;11.918;2022-08-01T05:37:49;9.63;;;8.10;;
40945;SDS011;55635;50.264;11.918;2022-08-01T05:40:30;8.23;;;7.15;;
40945;SDS011;55635;50.264;11.918;2022-08-01T05:43:11;7.63;;;7.00;;
40945;SDS011;55635;50.264;11.918;2022-08-01T05:45:52;7.03;;;6.43;;
40945;SDS011;55635;50.264;11.918;2022-08-01T05:48:33;7.57;;;6.50;;
40945;SDS011;55635;50.264;11.918;2022-08-01T05:51:14;6.60;;;6.10;;
40945;SDS011;55635;50.264;11.918;2022-08-01T05:53:55;7.50;;;6.10;;
40945;SDS011;55635;50.264;11.918;2022-08-01T05:56:37;6.85;;;6.13;;
40945;SDS011;55635;50.264;11.918;2022-08-01T05:59:18;6.88;;;6.25;;
40945;SDS011;55635;50.264;11.918;2022-08-01T06:01:59;7.18;;;6.50;;
40945;SDS011;55635;50.264;11.918;2022-08-01T06:04:41;7.47;;;5.82;;
40945;SDS011;55635;50.264;11.918;2022-08-01T06:07:22;6.25;;;5.63;;
40945;SDS011;55635;50.264;11.918;2022-08-01T06:10:03;6.95;;;6.30;;
40945;SDS011;55635;50.264;11.918;2022-08-01T06:12:45;6.57;;;5.85;;
40945;SDS011;55635;50.264;11.918;2022-08-01T06:15:26;8.00;;;6.15;;
40945;SDS011;55635;50.264;11.918;2022-08-01T06:18:07;9.27;;;6.40;;
40945;SDS011;55635;50.264;11.918;2022-08-01T06:20:48;6.30;;;5.60;;
40945;SDS011;55635;50.264;11.918;2022-08-01T06:23:29;7.30;;;6.55;;
40945;SDS011;55635;50.264;11.918;2022-08-01T06:26:10;7.03;;;5.90;;
40945;SDS011;55635;50.264;11.918;2022-08-01T06:28:51;6.10;;;5.60;;
40945;SDS011;55635;50.264;11.918;2022-08-01T06:31:32;5.00;;;4.60;;
40945;SDS011;55635;50.264;11.918;2022-08-01T06:34:13;4.13;;;3.08;;
40945;SDS011;55635;50.264;11.918;2022-08-01T06:36:55;3.63;;;3.15;;
40945;SDS011;55635;50.264;11.918;2022-08-01T06:39:36;3.67;;;3.20;;
40945;SDS011;55635;50.264;11.918;2022-08-01T06:42:17;4.32;;;3.03;;
40945;SDS011;55635;50.264;11.918;2022-08-01T06:44:58;3.78;;;3.00;;
40945;SDS011;55635;50.264;11.918;2022-08-01T06:47:39;2.70;;;2.50;;
40945;SDS011;55635;50.264;11.918;2022-08-01T06:50:22;2.78;;;2.58;;
40945;SDS011;55635;50.264;11.918;2022-08-01T06:53:03;2.70;;;2.50;;
40945;SDS011;55635;50.264;11.918;2022-08-01T06:55:44;3.00;;;2.75;;
40945;SDS011;55635;50.264;11.918;2022-08-01T06:58:25;3.88;;;2.70;;
40945;SDS011;55635;50.264;11.918;2022-08-01T07:01:06;2.90;;;2.70;;
40945;SDS011;55635;50.264;11.918;2022-08-01T07:03:47;2.75;;;2.55;;
40945;SDS011;55635;50.264;11.918;2022-08-01T07:06:28;2.80;;;2.60;;
40945;SDS011;55635;50.264;11.918;2022-08-01T07:09:10;3.58;;;2.65;;
40945;SDS011;55635;50.264;11.918;2022-08-01T07:11:51;2.80;;;2.40;;
40945;SDS011;55635;50.264;11.918;2022-08-01T07:14:33;2.67;;;2.47;;
40945;SDS011;55635;50.264;11.918;2022-08-01T07:17:14;2.88;;;2.17;;
40945;SDS011;55635;50.264;11.918;2022-08-01T07:19:55;3.17;;;2.40;;
40945;SDS011;55635;50.264;11.918;2022-08-01T07:22:37;1.95;;;1.85;;
40945;SDS011;55635;50.264;11.918;2022-08-01T07:25:18;2.20;;;2.00;;
40945;SDS011;55635;50.264;11.918;2022-08-01T07:27:59;2.17;;;2.08;;
40945;SDS011;55635;50.264;11.918;2022-08-01T07:30:40;1.88;;;1.77;;
40945;SDS011;55635;50.264;11.918;2022-08-01T07:33:22;2.78;;;1.40;;
40945;SDS011;55635;50.264;11.918;2022-08-01T07:36:03;1.70;;;1.60;;
40945;SDS011;55635;50.264;11.918;2022-08-01T07:38:45;2.92;;;1.55;;
40945;SDS011;55635;50.264;11.918;2022-08-01T07:41:26;1.38;;;1.27;;
40945;SDS011;55635;50.264;11.918;2022-08-01T07:44:08;1.40;;;1.30;;
40945;SDS011;55635;50.264;11.918;2022-08-01T07:46:49;10.82;;;2.35;;
40945;SDS011;55635;50.264;11.918;2022-08-01T07:49:30;2.58;;;1.30;;
40945;SDS011;55635;50.264;11.918;2022-08-01T07:52:11;1.48;;;1.38;;
40945;SDS011;55635;50.264;11.918;2022-08-01T07:54:52;8.50;;;1.45;;
40945;SDS011;55635;50.264;11.918;2022-08-01T07:57:35;1.58;;;1.48;;
40945;SDS011;55635;50.264;11.918;2022-08-01T08:00:16;1.23;;;1.13;;
40945;SDS011;55635;50.264;11.918;2022-08-01T08:02:58;0.93;;;0.93;;
40945;SDS011;55635;50.264;11.918;2022-08-01T08:05:39;1.20;;;1.20;;
40945;SDS011;55635;50.264;11.918;2022-08-01T08:08:20;1.50;;;1.40;;
40945;SDS011;55635;50.264;11.918;2022-08-01T08:11:01;2.47;;;1.80;;
40945;SDS011;55635;50.264;11.918;2022-08-01T08:13:42;1.88;;;1.77;;
40945;SDS011;55635;50.264;11.918;2022-08-01T08:16:23;1.92;;;1.60;;
40945;SDS011;55635;50.264;11.918;2022-08-01T08:19:04;5.35;;;2.10;;
40945;SDS011;55635;50.264;11.918;2022-08-01T08:21:45;3.50;;;2.00;;
40945;SDS011;55635;50.264;11.918;2022-08-01T08:24:27;4.70;;;1.90;;
40945;SDS011;55635;50.264;11.918;2022-08-01T08:27:08;2.25;;;2.05;;
40945;SDS011;55635;50.264;11.918;2022-08-01T08:29:49;5.40;;;2.05;;
40945;SDS011;55635;50.264;11.918;2022-08-01T08:32:33;4.03;;;1.90;;
40945;SDS011;55635;50.264;11.918;2022-08-01T08:35:15;1.83;;;1.58;;
40945;SDS011;55635;50.264;11.918;2022-08-01T08:37:57;4.88;;;1.60;;
40945;SDS011;55635;50.264;11.918;2022-08-01T08:40:38;3.63;;;1.55;;
40945;SDS011;55635;50.264;11.918;2022-08-01T08:43:19;1.70;;;1.60;;
40945;SDS011;55635;50.264;11.918;2022-08-01T08:46:02;2.03;;;1.50;;
40945;SDS011;55635;50.264;11.918;2022-08-01T08:48:43;1.42;;;1.33;;
40945;SDS011;55635;50.264;11.918;2022-08-01T08:51:28;1.75;;;1.48;;
40945;SDS011;55635;50.264;11.918;2022-08-01T08:54:13;3.13;;;1.73;;
40945;SDS011;55635;50.264;11.918;2022-08-01T08:56:56;1.55;;;1.45;;
40945;SDS011;55635;50.264;11.918;2022-08-01T08:59:39;1.60;;;1.50;;
40945;SDS011;55635;50.264;11.918;2022-08-01T09:02:22;1.75;;;1.48;;
40945;SDS011;55635;50.264;11.918;2022-08-01T09:05:03;1.60;;;1.50;;
40945;SDS011;55635;50.264;11.918;2022-08-01T09:07:45;3.00;;;1.88;;
40945;SDS011;55635;50.264;11.918;2022-08-01T09:10:27;1.92;;;1.73;;
40945;SDS011;55635;50.264;11.918;2022-08-01T09:13:11;1.80;;;1.55;;
40945;SDS011;55635;50.264;11.918;2022-08-01T09:15:55;1.42;;;1.20;;
40945;SDS011;55635;50.264;11.918;2022-08-01T09:18:40;1.80;;;1.70;;
40945;SDS011;55635;50.264;11.918;2022-08-01T09:21:22;1.48;;;1.30;;
40945;SDS011;55635;50.264;11.918;2022-08-01T09:24:12;1.95;;;1.73;;
40945;SDS011;55635;50.264;11.918;2022-08-01T09:26:56;3.53;;;1.90;;
40945;SDS011;55635;50.264;11.918;2022-08-01T09:29:38;1.67;;;1.38;;
40945;SDS011;55635;50.264;11.918;2022-08-01T09:32:20;1.42;;;1.38;;
40945;SDS011;55635;50.264;11.918;2022-08-01T09:38:21;1.95;;;1.80;;
40945;SDS011;55635;50.264;11.918;2022-08-01T09:41:04;2.35;;;1.73;;
40945;SDS011;55635;50.264;11.918;2022-08-01T09:43:48;1.80;;;1.70;;
40945;SDS011;55635;50.264;11.918;2022-08-01T09:46:30;2.35;;;1.80;;
40945;SDS011;55635;50.264;11.918;2022-08-01T09:49:12;1.80;;;1.70;;
40945;SDS011;55635;50.264;11.918;2022-08-01T09:51:53;3.25;;;1.67;;
40945;SDS011;55635;50.264;11.918;2022-08-01T09:54:34;1.73;;;1.63;;
40945;SDS011;55635;50.264;11.918;2022-08-01T09:57:16;1.77;;;1.67;;
40945;SDS011;55635;50.264;11.918;2022-08-01T10:00:00;2.67;;;1.60;;
40945;SDS011;55635;50.264;11.918;2022-08-01T10:02:52;1.33;;;1.33;;
40945;SDS011;55635;50.264;11.918;2022-08-01T10:05:34;1.33;;;1.23;;
40945;SDS011;55635;50.264;11.918;2022-08-01T10:08:16;1.75;;;1.65;;
40945;SDS011;55635;50.264;11.918;2022-08-01T10:11:08;1.40;;;1.30;;
40945;SDS011;55635;50.264;11.918;2022-08-01T10:13:51;1.60;;;1.50;;
40945;SDS011;55635;50.264;11.918;2022-08-01T10:16:33;1.98;;;1.00;;
40945;SDS011;55635;50.264;11.918;2022-08-01T10:19:18;0.98;;;0.90;;
40945;SDS011;55635;50.264;11.918;2022-08-01T10:22:04;1.23;;;1.08;;
40945;SDS011;55635;50.264;11.918;2022-08-01T10:24:50;1.17;;;1.10;;
40945;SDS011;55635;50.264;11.918;2022-08-01T10:27:34;2.63;;;1.75;;
40945;SDS011;55635;50.264;11.918;2022-08-01T10:30:18;2.22;;;1.50;;
40945;SDS011;55635;50.264;11.918;2022-08-01T10:33:00;1.58;;;1.48;;
40945;SDS011;55635;50.264;11.918;2022-08-01T10:35:41;1.55;;;1.45;;
40945;SDS011;55635;50.264;11.918;2022-08-01T10:38:25;1.40;;;1.27;;
40945;SDS011;55635;50.264;11.918;2022-08-01T10:41:08;1.80;;;1.70;;
40945;SDS011;55635;50.264;11.918;2022-08-01T10:43:52;1.15;;;1.10;;
40945;SDS011;55635;50.264;11.918;2022-08-01T10:46:38;0.77;;;0.77;;
40945;SDS011;55635;50.264;11.918;2022-08-01T10:49:26;0.85;;;0.85;;
40945;SDS011;55635;50.264;11.918;2022-08-01T10:52:14;0.60;;;0.60;;
40945;SDS011;55635;50.264;11.918;2022-08-01T10:55:06;0.70;;;0.63;;
40945;SDS011;55635;50.264;11.918;2022-08-01T10:57:49;1.17;;;0.50;;
40945;SDS011;55635;50.264;11.918;2022-08-01T11:00:30;0.93;;;0.60;;
40945;SDS011;55635;50.264;11.918;2022-08-01T11:03:11;0.40;;;0.40;;
40945;SDS011;55635;50.264;11.918;2022-08-01T11:05:52;0.68;;;0.32;;
40945;SDS011;55635;50.264;11.918;2022-08-01T11:08:35;0.40;;;0.40;;
40945;SDS011;55635;50.264;11.918;2022-08-01T11:11:18;0.40;;;0.40;;
40945;SDS011;55635;50.264;11.918;2022-08-01T11:16:52;0.70;;;0.70;;
40945;SDS011;55635;50.264;11.918;2022-08-01T11:28:27;0.50;;;0.50;;
40945;SDS011;55635;50.264;11.918;2022-08-01T11:33:55;0.60;;;0.60;;
40945;SDS011;55635;50.264;11.918;2022-08-01T11:36:38;0.70;;;0.70;;
40945;SDS011;55635;50.264;11.918;2022-08-01T11:39:19;1.33;;;0.70;;
40945;SDS011;55635;50.264;11.918;2022-08-01T11:42:16;0.65;;;0.50;;
40945;SDS011;55635;50.264;11.918;2022-08-01T11:45:00;0.50;;;0.50;;
40945;SDS011;55635;50.264;11.918;2022-08-01T11:47:46;0.65;;;0.65;;
40945;SDS011;55635;50.264;11.918;2022-08-01T11:50:33;0.50;;;0.38;;
40945;SDS011;55635;50.264;11.918;2022-08-01T11:53:16;0.32;;;0.32;;
40945;SDS011;55635;50.264;11.918;2022-08-01T11:55:58;1.85;;;0.50;;
40945;SDS011;55635;50.264;11.918;2022-08-01T11:58:40;0.80;;;0.40;;
40945;SDS011;55635;50.264;11.918;2022-08-01T12:01:21;1.42;;;0.57;;
40945;SDS011;55635;50.264;11.918;2022-08-01T12:04:03;0.50;;;0.50;;
40945;SDS011;55635;50.264;11.918;2022-08-01T12:06:44;0.47;;;0.45;;
40945;SDS011;55635;50.264;11.918;2022-08-01T12:09:25;0.50;;;0.50;;
40945;SDS011;55635;50.264;11.918;2022-08-01T12:12:06;0.60;;;0.60;;
40945;SDS011;55635;50.264;11.918;2022-08-01T12:14:52;1.65;;;0.60;;
40945;SDS011;55635;50.264;11.918;2022-08-01T12:20:21;0.52;;;0.47;;
40945;SDS011;55635;50.264;11.918;2022-08-01T12:23:05;1.08;;;0.70;;
40945;SDS011;55635;50.264;11.918;2022-08-01T12:25:51;0.60;;;0.60;;
40945;SDS011;55635;50.264;11.918;2022-08-01T12:28:38;1.05;;;0.40;;
40945;SDS011;55635;50.264;11.918;2022-08-01T12:31:30;1.50;;;0.70;;
40945;SDS011;55635;50.264;11.918;2022-08-01T12:34:25;0.93;;;0.50;;
40945;SDS011;55635;50.264;11.918;2022-08-01T12:37:08;0.68;;;0.40;;
40945;SDS011;55635;50.264;11.918;2022-08-01T12:39:49;0.65;;;0.43;;
40945;SDS011;55635;50.264;11.918;2022-08-01T12:42:30;0.50;;;0.50;;
40945;SDS011;55635;50.264;11.918;2022-08-01T12:45:20;0.68;;;0.45;;
40945;SDS011;55635;50.264;11.918;2022-08-01T12:48:09;1.00;;;0.50;;
40945;SDS011;55635;50.264;11.918;2022-08-01T12:50:56;0.60;;;0.60;;
40945;SDS011;55635;50.264;11.918;2022-08-01T12:53:37;0.57;;;0.47;;
40945;SDS011;55635;50.264;11.918;2022-08-01T12:56:18;0.60;;;0.60;;
40945;SDS011;55635;50.264;11.918;2022-08-01T12:59:20;2.15;;;0.77;;
40945;SDS011;55635;50.264;11.918;2022-08-01T13:02:07;0.60;;;0.60;;
40945;SDS011;55635;50.264;11.918;2022-08-01T13:04:49;0.73;;;0.73;;
40945;SDS011;55635;50.264;11.918;2022-08-01T13:08:08;0.80;;;0.38;;
40945;SDS011;55635;50.264;11.918;2022-08-01T13:10:39;0.80;;;0.70;;
40945;SDS011;55635;50.264;11.918;2022-08-01T13:13:21;1.13;;;0.80;;
40945;SDS011;55635;50.264;11.918;2022-08-01T13:16:03;1.50;;;0.88;;
40945;SDS011;55635;50.264;11.918;2022-08-01T13:18:52;0.60;;;0.60;;
40945;SDS011;55635;50.264;11.918;2022-08-01T13:21:36;1.95;;;0.70;;
40945;SDS011;55635;50.264;11.918;2022-08-01T13:24:22;1.90;;;0.57;;
40945;SDS011;55635;50.264;11.918;2022-08-01T13:27:08;0.40;;;0.40;;
40945;SDS011;55635;50.264;11.918;2022-08-01T13:30:10;0.60;;;0.60;;
40945;SDS011;55635;50.264;11.918;2022-08-01T13:32:59;0.70;;;0.70;;
40945;SDS011;55635;50.264;11.918;2022-08-01T13:35:40;1.25;;;0.77;;
40945;SDS011;55635;50.264;11.918;2022-08-01T13:38:22;0.80;;;0.80;;
40945;SDS011;55635;50.264;11.918;2022-08-01T13:41:23;0.98;;;0.60;;
40945;SDS011;55635;50.264;11.918;2022-08-01T13:44:04;0.60;;;0.60;;
40945;SDS011;55635;50.264;11.918;2022-08-01T13:46:45;0.50;;;0.50;;
40945;SDS011;55635;50.264;11.918;2022-08-01T13:49:29;0.57;;;0.57;;
40945;SDS011;55635;50.264;11.918;2022-08-01T13:52:10;1.60;;;0.60;;
40945;SDS011;55635;50.264;11.918;2022-08-01T13:54:51;0.70;;;0.70;;
40945;SDS011;55635;50.264;11.918;2022-08-01T13:57:32;1.23;;;0.70;;
40945;SDS011;55635;50.264;11.918;2022-08-01T14:00:14;1.15;;;0.80;;
40945;SDS011;55635;50.264;11.918;2022-08-01T14:02:55;0.82;;;0.82;;
40945;SDS011;55635;50.264;11.918;2022-08-01T14:05:36;0.55;;;0.55;;
40945;SDS011;55635;50.264;11.918;2022-08-01T14:08:18;0.60;;;0.60;;
40945;SDS011;55635;50.264;11.918;2022-08-01T14:10:59;0.68;;;0.68;;
40945;SDS011;55635;50.264;11.918;2022-08-01T14:13:40;0.70;;;0.70;;
40945;SDS011;55635;50.264;11.918;2022-08-01T14:16:21;0.50;;;0.50;;
40945;SDS011;55635;50.264;11.918;2022-08-01T14:19:03;0.65;;;0.65;;
40945;SDS011;55635;50.264;11.918;2022-08-01T14:21:44;1.15;;;0.68;;
40945;SDS011;55635;50.264;11.918;2022-08-01T14:24:25;1.02;;;0.65;;
40945;SDS011;55635;50.264;11.918;2022-08-01T14:27:07;0.95;;;0.63;;
40945;SDS011;55635;50.264;11.918;2022-08-01T14:29:48;1.38;;;0.85;;
40945;SDS011;55635;50.264;11.918;2022-08-01T14:32:29;1.88;;;0.73;;
40945;SDS011;55635;50.264;11.918;2022-08-01T14:35:10;1.88;;;0.65;;
40945;SDS011;55635;50.264;11.918;2022-08-01T14:37:51;0.88;;;0.88;;
40945;SDS011;55635;50.264;11.918;2022-08-01T14:40:33;0.68;;;0.68;;
40945;SDS011;55635;50.264;11.918;2022-08-01T14:43:14;0.60;;;0.60;;
40945;SDS011;55635;50.264;11.918;2022-08-01T14:45:55;0.75;;;0.75;;
40945;SDS011;55635;50.264;11.918;2022-08-01T14:48:36;1.08;;;0.98;;
40945;SDS011;55635;50.264;11.918;2022-08-01T14:51:18;0.90;;;0.68;;
40945;SDS011;55635;50.264;11.918;2022-08-01T14:53:59;1.05;;;1.05;;
40945;SDS011;55635;50.264;11.918;2022-08-01T14:56:40;1.10;;;1.00;;
40945;SDS011;55635;50.264;11.918;2022-08-01T14:59:21;1.00;;;1.00;;
40945;SDS011;55635;50.264;11.918;2022-08-01T15:02:02;0.82;;;0.82;;
40945;SDS011;55635;50.264;11.918;2022-08-01T15:04:47;2.00;;;0.88;;
40945;SDS011;55635;50.264;11.918;2022-08-01T15:07:28;0.90;;;0.90;;
40945;SDS011;55635;50.264;11.918;2022-08-01T15:10:09;2.00;;;0.90;;
40945;SDS011;55635;50.264;11.918;2022-08-01T15:12:50;1.00;;;1.00;;
40945;SDS011;55635;50.264;11.918;2022-08-01T15:15:32;1.15;;;1.15;;
40945;SDS011;55635;50.264;11.918;2022-08-01T15:18:13;1.05;;;0.95;;
40945;SDS011;55635;50.264;11.918;2022-08-01T15:20:54;1.15;;;1.08;;
40945;SDS011;55635;50.264;11.918;2022-08-01T15:23:37;1.00;;;1.00;;
40945;SDS011;55635;50.264;11.918;2022-08-01T15:26:18;0.95;;;0.80;;
40945;SDS011;55635;50.264;11.918;2022-08-01T15:28:59;0.90;;;0.90;;
40945;SDS011;55635;50.264;11.918;2022-08-01T15:31:40;0.90;;;0.90;;
40945;SDS011;55635;50.264;11.918;2022-08-01T15:34:21;1.35;;;1.20;;
40945;SDS011;55635;50.264;11.918;2022-08-01T15:37:03;0.98;;;0.98;;
40945;SDS011;55635;50.264;11.918;2022-08-01T15:39:45;1.10;;;1.00;;
40945;SDS011;55635;50.264;11.918;2022-08-01T15:42:26;1.20;;;1.13;;
40945;SDS011;55635;50.264;11.918;2022-08-01T15:45:08;1.25;;;1.15;;
40945;SDS011;55635;50.264;11.918;2022-08-01T15:47:49;1.27;;;1.10;;
40945;SDS011;55635;50.264;11.918;2022-08-01T15:50:30;1.77;;;1.08;;
40945;SDS011;55635;50.264;11.918;2022-08-01T15:53:11;1.13;;;1.10;;
40945;SDS011;55635;50.264;11.918;2022-08-01T15:55:53;1.40;;;1.10;;
40945;SDS011;55635;50.264;11.918;2022-08-01T15:58:34;1.13;;;1.02;;
40945;SDS011;55635;50.264;11.918;2022-08-01T16:01:15;1.23;;;1.13;;
40945;SDS011;55635;50.264;11.918;2022-08-01T16:03:56;0.90;;;0.90;;
40945;SDS011;55635;50.264;11.918;2022-08-01T16:06:38;0.95;;;0.95;;
40945;SDS011;55635;50.264;11.918;2022-08-01T16:09:19;0.90;;;0.90;;
40945;SDS011;55635;50.264;11.918;2022-08-01T16:12:00;0.90;;;0.90;;
40945;SDS011;55635;50.264;11.918;2022-08-01T16:14:41;1.10;;;1.00;;
40945;SDS011;55635;50.264;11.918;2022-08-01T16:17:22;1.00;;;1.00;;
40945;SDS011;55635;50.264;11.918;2022-08-01T16:20:04;1.10;;;1.00;;
40945;SDS011;55635;50.264;11.918;2022-08-01T16:22:47;0.90;;;0.90;;
40945;SDS011;55635;50.264;11.918;2022-08-01T16:25:28;1.13;;;1.02;;
40945;SDS011;55635;50.264;11.918;2022-08-01T16:28:09;4.10;;;0.80;;
40945;SDS011;55635;50.264;11.918;2022-08-01T16:30:51;1.67;;;0.80;;
40945;SDS011;55635;50.264;11.918;2022-08-01T16:33:32;1.00;;;0.90;;
40945;SDS011;55635;50.264;11.918;2022-08-01T16:36:14;1.38;;;1.00;;
40945;SDS011;55635;50.264;11.918;2022-08-01T16:38:55;0.80;;;0.80;;
40945;SDS011;55635;50.264;11.918;2022-08-01T16:41:37;1.13;;;0.95;;